Aérodrome :
LOGIN :

S'inscrire | Disclaimer

   EN    FR    IT 

 










Légende :    VFR   VFR Marginal   IFR   IFR Intensif   IFR Très Intensif
Visi : 
Plafond : 
>= 8 km
>= 3000ft
5 à 8 km
1000 à 3000 ft
1500m à 5 km
500 à 1000 ft
800 à 1500m
200 à 500 ft
< 800m
< 200 ft
Symboles :   Orages  Brouillard  Fortes neiges  Fortes précipitations  Vent > 20 kt
SIGMETs :   Divers  Orages  Givrage  Turbulence  Onde Orograph.  Cendres Volcan.






- Altitude de l'aérodrome : 1090 ft
- Code IATA : CFE


LFLC - Clermont-Ferrand Auvergne

DERNIER METAR :
  • 110730Z AUTO VRB04KT 9999 FEW015 SCT058 OVC070 06/M02 Q1013 NOSIG

METARs EXPIRÉS :
  • 110700Z AUTO 16007KT 090V200 9999 BKN060 OVC078 06/M03 Q1013 TEMPO 18015G25KT
  • 110630Z AUTO VRB07KT 9999 BKN056 OVC072 07/M04 Q1014 TEMPO 18015G25KT
  • 110600Z AUTO VRB03KT CAVOK 06/M03 Q1014 TEMPO 18015G25KT
  • 110530Z AUTO 14004KT 060V210 9999 FEW060/// OVC070/// ///TCU 05/M02 Q1014 TEMPO 18015G25KT BECMG BKN060
  • 110500Z AUTO 15006KT 100V260 9999 BKN062 OVC078 05/M03 Q1015 TEMPO 18015G25KT

TAF TAF LFLC
Valide du 11 à 03h jusqu'au 12 à 03h UTC


110200Z 1103/1203 18009KT 9999 BKN060
TEMPO 1103/1108 18015G25KT
TEMPO 1106/1113 -RA
BECMG 1110/1112 25008KT BKN035
BECMG 1117/1119 18006KT
TEMPO 1119/1124 BKN030
ATIS : +33 4 73 62 74 38



MET'MAP, la Météo Aéronautique d'un coup d'oeil ! - Copyright ORBIFLY Décembre 2007 - Disclaimer

ORBIFLY MET'MAP TEAM :

Programmation & Développement : Alexandra Zaïnal
Sur une idée originale de : Baudouin d'Aumeries
Assistance à la programmation : Marc-Olivier Méhu
Soutien technique & logistique : Manuel Goepfert

Contact : metmap@orbifly.com




SOURCES & CREDITS :

   NOAA